aviador You're here:

WMKD Decoded Metar

KUANTAN in MALAYSIA
Report Time2017-06-22 21:00:00
UTC Time2017-06-22 22:16:16
Flight Rules Old
WindCalm
Visibility8000 m
Phenomena:N/A
Clouds:Few 004 Hf
Scattered 160 Hf
Broken 280 Hf
Expected CloudBase > 400 ft AGL from Temp-Dew spread
Ceiling28,000 ft
Temp24°C (ISA +9)
Dew Point23°C (94% RH)
QNH1009 hPa
Density Alt1,611 ft
Elevation52 ft
Report Wrong Elevation
Raw Report
METAR WMKD 222100Z 00000KT 8000 FEW004 SCT160 BKN280 24/23 Q1009
NOSIG=

Extra information for WMKD:More info

Metar Taf Metar & Taf Last 4 Metars F.Rules Stats Wind Profile Meteogram Temp Stats Airport Information Weather charts Add Link Nearby VenuesMetar ALERT Operation Metar Decoded Social comments